Perry, MO (63462)

9:26 AM CDT on May 29, 2015 (GMT -0500)
North Eastern Ralls County WB2UFO | | Change Station
CLOSE
Current Station
Personal Weather Station
Location: New London, MO
Elevation: 700 ft
Nearby Weather Stations

Elev 700 ft 39.64 °N, 91.44 °W | Updated 48 seconds ago

Overcast
Overcast
74.5 °F
Feels Like 74 °F
N
1.0
Wind Variable Wind from WSW
Gusts 5.0 mph

Today
High -- | Low -- °F
--% Chance of Precip.
Yesterday
High -- | Low -- °F
Precip. -- in
5:43 AM 8:25 PM
Waxing Gibbous, 84% visible
Pressure 30.01 in
Visibility 10.0 miles
Clouds Scattered Clouds 1300 ft
Mostly Cloudy 8000 ft
Heat Index 74 °F
Dew Point 70 °F
Humidity 85%
Rainfall 0.02 in
Snow Depth Not available.
UV 3 out of 12
Pollen 3.80 out of 12
Air Quality Not available.
Flu Activity Sporadic
METAR KHAE 291415Z AUTO 21006KT 10SM SCT013 BKN080 22/18 A3001 RMK AO2

More Conditions Fewer Conditions

Pressure 30.01 in
Visibility 10.0 miles
Clouds Scattered Clouds 1300 ft
Mostly Cloudy 8000 ft
Heat Index 74 °F
Dew Point 70 °F
Humidity 85%
Rainfall 0.02 in
Snow Depth Not available.
UV 3 out of 12
Pollen 3.80 out of 12
Air Quality Not available.
Flu Activity Sporadic
METAR KHAE 291415Z AUTO 21006KT 10SM SCT013 BKN080 22/18 A3001 RMK AO2

More Conditions Fewer Conditions

10-Day Weather Forecast

Almanac

Astronomy

May. 29, 2015 Rise Set
Actual Time
Civil Twilight
Nautical Twilight
Astronomical Twilight
Moon
Length of Visible Light
Length of Day
Tomorrow will be .
, % of the Moon is Illuminated

Today's Extremes

State Highs State Lows

Community

WunderPhotos

Upload Photos

1,825,282 photos uploaded!

WunderBlogs® & News

Nearby

Air Quality

  Air Quality AQ Index Pollutant
Not available.

Snow Depth

Station Depth Elevation

Earthquake Activity

City Distance Mag. Time & Date
Minimum magnitude displayed is 2.5.

Coastal Water Temperatures

Place Temperature

Stations

Nearby Weather Stations

Station Location Temp. Windchill Dew Point Humidity Wind Precip. Elev Updated Type